Time,TemperatureF,DewpointF,PressureIn,WindDirection,WindDirectionDegrees,WindSpeedMPH,WindSpeedGustMPH,Humidity,HourlyPrecipIn,Conditions,Clouds,dailyrainin,SoftwareType,DateUTC
2013-02-19 00:00:00,41.9,11.1,29.37,SSE,157,10.4,10.4,28,0.00,CLR,,0.00,WeatherDisplay:10.37,2013-02-19 05:00:00,
2013-02-19 00:02:00,41.9,11.1,29.37,South,180,10.4,10.4,28,0.00,CLR,,0.00,WeatherDisplay:10.37,2013-02-19 05:02:00,
2013-02-19 00:04:00,41.9,11.1,29.37,NE,45,10.4,10.4,28,0.00,CLR,,0.00,WeatherDisplay:10.37,2013-02-19 05:04:00,
2013-02-19 00:09:00,42.3,11.4,29.36,SSW,202,6.9,6.9,28,0.00,CLR,,0.00,WeatherDisplay:10.37,2013-02-19 05:09:00,
2013-02-19 00:14:00,42.4,11.6,29.36,South,180,6.9,6.9,28,0.00,CLR,,0.00,WeatherDisplay:10.37,2013-02-19 05:14:00,
2013-02-19 00:19:00,43.2,12.2,29.36,SSE,157,7.3,7.3,28,0.00,CLR,,0.00,WeatherDisplay:10.37,2013-02-19 05:19:00,
2013-02-19 00:24:00,43.5,12.5,29.36,SW,225,8.4,8.4,28,0.00,CLR,,0.00,WeatherDisplay:10.37,2013-02-19 05:24:00,
2013-02-19 00:30:00,43.9,12.8,29.36,SW,225,14.0,14.0,28,0.00,CLR,,0.00,WeatherDisplay:10.37,2013-02-19 05:30:00,
2013-02-19 00:35:00,43.9,12.8,29.37,SW,225,17.3,17.3,28,0.00,CLR,,0.00,WeatherDisplay:10.37,2013-02-19 05:35:00,
2013-02-19 00:40:00,43.2,12.2,29.36,South,180,17.3,17.3,28,0.00,CLR,,0.00,WeatherDisplay:10.37,2013-02-19 05:40:00,
2013-02-19 00:45:00,42.8,11.9,29.36,South,180,17.3,17.3,28,0.00,CLR,,0.00,WeatherDisplay:10.37,2013-02-19 05:45:00,
2013-02-19 00:50:00,42.8,11.9,29.31,South,180,17.3,17.3,28,0.00,CLR,,0.00,WeatherDisplay:10.37,2013-02-19 05:50:00,
2013-02-19 00:55:00,42.6,11.7,29.31,South,180,17.3,17.3,28,0.00,CLR,,0.00,WeatherDisplay:10.37,2013-02-19 05:55:00,
2013-02-19 01:00:00,42.1,11.3,29.31,South,180,17.3,17.3,28,0.00,CLR,,0.00,WeatherDisplay:10.37,2013-02-19 06:00:00,
2013-02-19 01:05:00,42.1,11.3,29.30,South,180,3.8,3.8,28,0.00,CLR,,0.00,WeatherDisplay:10.37,2013-02-19 06:05:00,
2013-02-19 01:10:00,41.9,11.1,29.30,South,180,7.1,7.1,28,0.00,CLR,,0.00,WeatherDisplay:10.37,2013-02-19 06:10:00,
2013-02-19 01:15:00,41.5,10.8,29.30,South,180,10.2,10.2,28,0.00,CLR,,0.00,WeatherDisplay:10.37,2013-02-19 06:15:00,
2013-02-19 01:20:00,41.7,11.0,29.30,SSW,202,10.4,10.4,28,0.00,CLR,,0.00,WeatherDisplay:10.37,2013-02-19 06:20:00,
2013-02-19 01:25:00,41.7,11.0,29.30,WSW,247,10.4,10.4,28,0.00,CLR,,0.00,WeatherDisplay:10.37,2013-02-19 06:25:00,
2013-02-19 01:30:00,41.7,11.0,29.30,SW,225,10.4,10.4,28,0.00,CLR,,0.00,WeatherDisplay:10.37,2013-02-19 06:30:00,
2013-02-19 01:35:00,41.7,11.0,29.30,SSW,202,10.4,10.4,28,0.00,CLR,,0.00,WeatherDisplay:10.37,2013-02-19 06:35:00,
2013-02-19 01:40:00,41.7,11.0,29.30,South,180,10.4,10.4,28,0.00,CLR,,0.00,WeatherDisplay:10.37,2013-02-19 06:40:00,
2013-02-19 01:45:00,41.5,10.8,29.30,SSW,202,12.9,12.9,28,0.00,CLR,,0.00,WeatherDisplay:10.37,2013-02-19 06:45:00,
2013-02-19 01:50:00,41.5,10.8,29.28,South,180,12.9,12.9,28,0.00,CLR,,0.00,WeatherDisplay:10.37,2013-02-19 06:50:00,
2013-02-19 01:55:00,41.4,10.6,29.28,South,180,12.9,12.9,28,0.00,CLR,,0.00,WeatherDisplay:10.37,2013-02-19 06:55:00,
2013-02-19 02:00:00,41.4,10.6,29.30,SSW,202,12.9,12.9,28,0.00,CLR,,0.00,WeatherDisplay:10.37,2013-02-19 07:00:00,
2013-02-19 02:05:00,41.4,10.6,29.30,SSW,202,12.7,12.7,28,0.00,CLR,,0.00,WeatherDisplay:10.37,2013-02-19 07:05:00,
2013-02-19 02:10:00,41.4,10.6,29.30,SSE,157,7.3,7.3,28,0.00,CLR,,0.00,WeatherDisplay:10.37,2013-02-19 07:10:00,
2013-02-19 02:15:00,41.4,10.6,29.28,South,180,10.4,10.4,28,0.00,CLR,,0.00,WeatherDisplay:10.37,2013-02-19 07:15:00,
2013-02-19 02:20:00,39.2,8.8,29.28,SSW,202,10.4,10.4,28,0.00,CLR,,0.00,WeatherDisplay:10.37,2013-02-19 07:20:00,
2013-02-19 02:25:00,41.0,10.3,29.28,WSW,247,10.4,10.4,28,0.00,CLR,,0.00,WeatherDisplay:10.37,2013-02-19 07:25:00,
2013-02-19 02:30:00,41.0,10.3,29.28,SW,225,10.4,10.4,28,0.00,CLR,,0.00,WeatherDisplay:10.37,2013-02-19 07:30:00,
2013-02-19 02:35:00,40.8,10.2,29.23,SSE,157,10.4,10.4,28,0.00,CLR,,0.00,WeatherDisplay:10.37,2013-02-19 07:35:00,
2013-02-19 02:40:00,41.2,10.5,29.22,SSW,202,10.4,10.4,28,0.00,CLR,,0.00,WeatherDisplay:10.37,2013-02-19 07:40:00,
2013-02-19 02:45:00,40.8,10.2,29.23,ESE,112,10.4,10.4,28,0.00,CLR,,0.00,WeatherDisplay:10.37,2013-02-19 07:45:00,
2013-02-19 02:50:00,40.8,10.2,29.22,SE,135,10.4,10.4,28,0.00,CLR,,0.00,WeatherDisplay:10.37,2013-02-19 07:50:00,
2013-02-19 02:55:00,40.8,10.2,29.22,SW,225,10.4,10.4,28,0.00,CLR,,0.00,WeatherDisplay:10.37,2013-02-19 07:55:00,
2013-02-19 03:00:00,40.8,10.2,29.22,South,180,10.4,10.4,28,0.00,CLR,,0.00,WeatherDisplay:10.37,2013-02-19 08:00:00,
2013-02-19 03:05:00,40.8,10.2,29.22,South,180,10.4,10.4,28,0.00,CLR,,0.00,WeatherDisplay:10.37,2013-02-19 08:05:00,
2013-02-19 03:10:00,40.8,10.2,29.22,SSE,157,8.1,8.1,28,0.00,CLR,,0.00,WeatherDisplay:10.37,2013-02-19 08:10:00,
2013-02-19 03:15:00,40.8,10.2,29.22,SSW,202,8.1,8.1,28,0.00,CLR,,0.00,WeatherDisplay:10.37,2013-02-19 08:15:00,
2013-02-19 03:20:00,40.8,10.2,29.22,SSW,202,10.4,10.4,28,0.00,CLR,,0.00,WeatherDisplay:10.37,2013-02-19 08:20:00,
2013-02-19 03:25:00,40.6,10.0,29.22,South,180,10.4,10.4,28,0.00,CLR,,0.00,WeatherDisplay:10.37,2013-02-19 08:25:00,
2013-02-19 03:30:00,40.6,10.0,29.22,SSE,157,10.4,10.4,28,0.00,CLR,,0.00,WeatherDisplay:10.37,2013-02-19 08:30:00,
2013-02-19 03:35:00,40.6,10.0,29.22,SW,225,10.9,10.9,28,0.00,CLR,,0.00,WeatherDisplay:10.37,2013-02-19 08:35:00,
2013-02-19 03:40:00,40.6,10.0,29.21,South,180,10.9,10.9,28,0.00,CLR,,0.00,WeatherDisplay:10.37,2013-02-19 08:40:00,
2013-02-19 03:45:00,40.5,9.9,29.22,SSW,202,10.9,10.9,28,0.00,CLR,,0.00,WeatherDisplay:10.37,2013-02-19 08:45:00,
2013-02-19 03:50:00,40.5,9.9,29.21,SW,225,10.9,10.9,28,0.00,CLR,,0.00,WeatherDisplay:10.37,2013-02-19 08:50:00,
2013-02-19 03:55:00,40.5,9.9,29.21,SW,225,10.9,10.9,28,0.00,CLR,,0.00,WeatherDisplay:10.37,2013-02-19 08:55:00,
2013-02-19 04:00:00,40.3,9.7,29.21,South,180,10.9,10.9,28,0.00,CLR,,0.00,WeatherDisplay:10.37,2013-02-19 09:00:00,
2013-02-19 04:05:00,40.3,9.7,29.16,SSW,202,10.4,10.4,28,0.00,CLR,,0.00,WeatherDisplay:10.37,2013-02-19 09:05:00,
2013-02-19 04:10:00,40.3,9.7,29.16,SW,225,11.5,11.5,28,0.00,CLR,,0.00,WeatherDisplay:10.37,2013-02-19 09:10:00,
2013-02-19 04:15:00,40.3,9.7,29.15,SW,225,11.5,11.5,28,0.00,CLR,,0.00,WeatherDisplay:10.37,2013-02-19 09:15:00,
2013-02-19 04:20:00,40.3,9.7,29.16,SSW,202,11.5,11.5,28,0.00,CLR,,0.00,WeatherDisplay:10.37,2013-02-19 09:20:00,
2013-02-19 04:25:00,40.3,9.7,29.15,SSW,202,11.5,11.5,28,0.00,CLR,,0.00,WeatherDisplay:10.37,2013-02-19 09:25:00,
2013-02-19 04:30:00,40.1,9.6,29.16,SW,225,11.5,11.5,28,0.00,CLR,,0.00,WeatherDisplay:10.37,2013-02-19 09:30:00,
2013-02-19 04:35:00,40.1,9.6,29.16,South,180,11.5,11.5,28,0.00,CLR,,0.00,WeatherDisplay:10.37,2013-02-19 09:35:00,
2013-02-19 04:40:00,40.1,9.6,29.17,SSW,202,11.5,11.5,28,0.00,CLR,,0.00,WeatherDisplay:10.37,2013-02-19 09:40:00,
2013-02-19 04:45:00,40.1,9.6,29.17,South,180,11.5,11.5,28,0.00,CLR,,0.00,WeatherDisplay:10.37,2013-02-19 09:45:00,
2013-02-19 04:50:00,40.1,9.6,29.18,SW,225,11.5,11.5,28,0.00,CLR,,0.00,WeatherDisplay:10.37,2013-02-19 09:50:00,
2013-02-19 04:55:00,40.1,9.6,29.18,West,270,11.5,11.5,28,0.00,CLR,,0.00,WeatherDisplay:10.37,2013-02-19 09:55:00,
2013-02-19 05:00:00,40.1,9.6,29.20,WSW,247,11.5,11.5,28,0.00,CLR,,0.00,WeatherDisplay:10.37,2013-02-19 10:00:00,
2013-02-19 05:05:00,39.7,9.2,29.21,West,270,7.3,7.3,28,0.00,CLR,,0.00,WeatherDisplay:10.37,2013-02-19 10:05:00,
2013-02-19 05:10:00,38.1,7.8,29.22,West,270,10.4,10.4,28,0.00,CLR,,0.00,WeatherDisplay:10.37,2013-02-19 10:10:00,
2013-02-19 05:15:00,37.8,7.5,29.22,West,270,10.4,10.4,28,0.00,CLR,,0.00,WeatherDisplay:10.37,2013-02-19 10:15:00,
2013-02-19 05:20:00,36.9,6.7,29.24,NW,315,10.4,10.4,28,0.00,CLR,,0.00,WeatherDisplay:10.37,2013-02-19 10:20:00,
2013-02-19 05:25:00,36.7,6.6,29.24,WNW,292,10.4,10.4,28,0.00,CLR,,0.00,WeatherDisplay:10.37,2013-02-19 10:25:00,
2013-02-19 05:30:00,36.0,6.0,29.25,WSW,247,10.4,10.4,28,0.00,CLR,,0.00,WeatherDisplay:10.37,2013-02-19 10:30:00,
2013-02-19 05:35:00,35.6,5.6,29.25,West,270,10.4,10.4,28,0.00,CLR,,0.00,WeatherDisplay:10.37,2013-02-19 10:35:00,
2013-02-19 05:40:00,35.4,5.5,29.26,West,270,10.4,10.4,28,0.00,CLR,,0.00,WeatherDisplay:10.37,2013-02-19 10:40:00,
2013-02-19 05:45:00,35.1,5.2,29.27,WNW,292,10.4,10.4,28,0.00,CLR,,0.00,WeatherDisplay:10.37,2013-02-19 10:45:00,
2013-02-19 05:50:00,35.1,5.2,29.29,WNW,292,10.4,10.4,28,0.00,CLR,,0.00,WeatherDisplay:10.37,2013-02-19 10:50:00,
2013-02-19 05:55:00,34.9,5.0,29.24,West,270,10.4,10.4,28,0.00,CLR,,0.00,WeatherDisplay:10.37,2013-02-19 10:55:00,
2013-02-19 06:00:00,34.7,4.9,29.25,WSW,247,10.4,10.4,28,0.00,CLR,,0.00,WeatherDisplay:10.37,2013-02-19 11:00:00,
2013-02-19 06:05:00,34.3,4.5,29.25,West,270,10.4,10.4,28,0.00,CLR,,0.00,WeatherDisplay:10.37,2013-02-19 11:05:00,
2013-02-19 06:10:00,34.3,4.5,29.26,WNW,292,8.4,8.4,28,0.00,CLR,,0.00,WeatherDisplay:10.37,2013-02-19 11:10:00,
2013-02-19 06:15:00,34.2,4.4,29.26,West,270,9.2,9.2,28,0.00,CLR,,0.00,WeatherDisplay:10.37,2013-02-19 11:15:00,
2013-02-19 06:20:00,34.0,4.2,29.26,West,270,9.2,9.2,28,0.00,CLR,,0.00,WeatherDisplay:10.37,2013-02-19 11:20:00,
2013-02-19 06:25:00,34.0,4.2,29.26,NW,315,9.2,9.2,28,0.00,CLR,,0.00,WeatherDisplay:10.37,2013-02-19 11:25:00,
2013-02-19 06:30:00,34.0,4.2,29.26,NW,315,9.2,9.2,28,0.00,CLR,,0.00,WeatherDisplay:10.37,2013-02-19 11:30:00,
2013-02-19 06:35:00,34.0,4.2,29.25,WNW,292,9.2,9.2,28,0.00,CLR,,0.00,WeatherDisplay:10.37,2013-02-19 11:35:00,
2013-02-19 06:40:00,33.8,4.1,29.30,WNW,292,9.2,9.2,28,0.00,CLR,,0.00,WeatherDisplay:10.37,2013-02-19 11:40:00,
2013-02-19 06:45:00,33.8,4.1,29.29,NW,315,10.7,10.7,28,0.00,CLR,,0.00,WeatherDisplay:10.37,2013-02-19 11:45:00,
2013-02-19 06:50:00,33.6,3.9,29.31,WSW,247,10.7,10.7,28,0.00,CLR,,0.00,WeatherDisplay:10.37,2013-02-19 11:50:00,
2013-02-19 06:55:00,33.6,3.9,29.25,WNW,292,10.7,10.7,28,0.00,CLR,,0.00,WeatherDisplay:10.37,2013-02-19 11:55:00,
2013-02-19 07:00:00,33.6,3.9,29.27,West,270,10.7,10.7,28,0.00,CLR,,0.00,WeatherDisplay:10.37,2013-02-19 12:00:00,
2013-02-19 07:05:00,33.6,3.9,29.27,WSW,247,10.4,10.4,28,0.00,CLR,,0.00,WeatherDisplay:10.37,2013-02-19 12:05:00,
2013-02-19 07:10:00,33.4,3.8,29.28,West,270,11.4,11.4,28,0.00,CLR,,0.00,WeatherDisplay:10.37,2013-02-19 12:10:00,
2013-02-19 07:15:00,33.1,3.5,29.29,WSW,247,11.5,11.5,28,0.00,CLR,,0.00,WeatherDisplay:10.37,2013-02-19 12:15:00,
2013-02-19 07:20:00,32.9,3.3,29.30,WSW,247,11.5,11.5,28,0.00,CLR,,0.00,WeatherDisplay:10.37,2013-02-19 12:20:00,
2013-02-19 07:25:00,32.7,3.1,29.30,WNW,292,11.5,11.5,28,0.00,CLR,,0.00,WeatherDisplay:10.37,2013-02-19 12:25:00,
2013-02-19 07:30:00,32.5,3.0,29.31,WNW,292,11.5,11.5,28,0.00,CLR,,0.00,WeatherDisplay:10.37,2013-02-19 12:30:00,
2013-02-19 07:35:00,32.5,3.0,29.29,West,270,11.5,11.5,28,0.00,CLR,,0.00,WeatherDisplay:10.37,2013-02-19 12:35:00,
2013-02-19 07:40:00,32.4,2.8,29.34,West,270,11.5,11.5,28,0.00,CLR,,0.00,WeatherDisplay:10.37,2013-02-19 12:40:00,
2013-02-19 07:45:00,32.4,2.8,29.34,West,270,11.5,11.5,28,0.00,CLR,,0.00,WeatherDisplay:10.37,2013-02-19 12:45:00,
2013-02-19 07:50:00,32.4,2.8,29.35,SW,225,11.5,11.5,28,0.00,CLR,,0.00,WeatherDisplay:10.37,2013-02-19 12:50:00,
2013-02-19 07:55:00,32.2,2.7,29.36,SW,225,11.5,11.5,28,0.00,CLR,,0.00,WeatherDisplay:10.37,2013-02-19 12:55:00,
2013-02-19 08:00:00,32.2,2.7,29.30,SW,225,11.5,11.5,28,0.00,CLR,,0.00,WeatherDisplay:10.37,2013-02-19 13:00:00,
2013-02-19 08:05:00,32.0,2.5,29.31,WSW,247,9.2,9.2,28,0.00,CLR,,0.00,WeatherDisplay:10.37,2013-02-19 13:05:00,
2013-02-19 08:10:00,31.8,2.4,29.33,WSW,247,10.4,10.4,28,0.00,CLR,,0.00,WeatherDisplay:10.37,2013-02-19 13:10:00,
2013-02-19 08:15:00,31.6,2.2,29.33,WSW,247,10.4,10.4,28,0.00,CLR,,0.00,WeatherDisplay:10.37,2013-02-19 13:15:00,
2013-02-19 08:20:00,31.5,2.0,29.34,WSW,247,10.7,10.7,28,0.00,CLR,,0.00,WeatherDisplay:10.37,2013-02-19 13:20:00,
2013-02-19 08:25:00,31.3,1.9,29.34,SW,225,10.7,10.7,28,0.00,CLR,,0.00,WeatherDisplay:10.37,2013-02-19 13:25:00,
2013-02-19 08:30:00,30.7,1.4,29.35,WNW,292,10.7,10.7,28,0.00,CLR,,0.00,WeatherDisplay:10.37,2013-02-19 13:30:00,
2013-02-19 08:35:00,30.7,1.4,29.35,WNW,292,10.7,10.7,28,0.00,CLR,,0.00,WeatherDisplay:10.37,2013-02-19 13:35:00,
2013-02-19 08:40:00,30.7,1.4,29.35,West,270,10.7,10.7,28,0.00,CLR,,0.00,WeatherDisplay:10.37,2013-02-19 13:40:00,
2013-02-19 08:45:00,30.4,1.1,29.34,West,270,12.0,12.0,28,0.00,CLR,,0.00,WeatherDisplay:10.37,2013-02-19 13:45:00,
2013-02-19 08:50:00,30.4,1.1,29.33,West,270,12.0,12.0,28,0.00,CLR,,0.00,WeatherDisplay:10.37,2013-02-19 13:50:00,
2013-02-19 08:55:00,30.4,1.1,29.38,West,270,12.0,12.0,28,0.00,CLR,,0.00,WeatherDisplay:10.37,2013-02-19 13:55:00,
2013-02-19 09:00:00,30.2,0.9,29.39,West,270,12.0,12.0,28,0.00,CLR,,0.00,WeatherDisplay:10.37,2013-02-19 14:00:00,
2013-02-19 09:05:00,30.0,0.8,29.39,West,270,6.9,6.9,28,0.00,CLR,,0.00,WeatherDisplay:10.37,2013-02-19 14:05:00,
2013-02-19 09:10:00,29.8,0.6,29.34,West,270,6.9,6.9,28,0.00,CLR,,0.00,WeatherDisplay:10.37,2013-02-19 14:10:00,
2013-02-19 09:15:00,29.8,0.6,29.34,West,270,10.4,10.4,28,0.00,CLR,,0.00,WeatherDisplay:10.37,2013-02-19 14:15:00,
2013-02-19 09:20:00,29.7,0.5,29.35,West,270,10.4,10.4,28,0.00,CLR,,0.00,WeatherDisplay:10.37,2013-02-19 14:20:00,
2013-02-19 09:25:00,29.3,0.2,29.36,West,270,10.4,10.4,28,0.00,CLR,,0.00,WeatherDisplay:10.37,2013-02-19 14:25:00,
2013-02-19 09:30:00,29.3,0.2,29.36,West,270,10.4,10.4,28,0.00,CLR,,0.00,WeatherDisplay:10.37,2013-02-19 14:30:00,
2013-02-19 09:35:00,29.1,0.0,29.37,West,270,10.4,10.4,28,0.00,CLR,,0.00,WeatherDisplay:10.37,2013-02-19 14:35:00,
2013-02-19 09:40:00,28.9,-0.1,29.37,West,270,10.4,10.4,28,0.00,CLR,,0.00,WeatherDisplay:10.37,2013-02-19 14:40:00,
2013-02-19 09:45:00,28.9,-0.1,29.42,West,270,10.4,10.4,28,0.00,CLR,,0.00,WeatherDisplay:10.37,2013-02-19 14:45:00,
2013-02-19 09:50:00,28.9,-0.1,29.42,West,270,11.6,11.6,28,0.00,CLR,,0.00,WeatherDisplay:10.37,2013-02-19 14:50:00,
2013-02-19 09:55:00,28.6,-0.5,29.41,West,270,11.6,11.6,28,0.00,CLR,,0.00,WeatherDisplay:10.37,2013-02-19 14:55:00,
2013-02-19 10:00:00,28.6,-0.5,29.40,West,270,11.6,11.6,28,0.00,CLR,,0.00,WeatherDisplay:10.37,2013-02-19 15:00:00,
2013-02-19 10:05:00,28.4,-0.6,29.39,West,270,6.9,6.9,28,0.00,CLR,,0.00,WeatherDisplay:10.37,2013-02-19 15:05:00,
2013-02-19 10:10:00,28.4,-0.6,29.38,West,270,9.2,9.2,28,0.00,CLR,,0.00,WeatherDisplay:10.37,2013-02-19 15:10:00,
2013-02-19 10:15:00,28.2,-0.8,29.38,West,270,9.2,9.2,28,0.00,CLR,,0.00,WeatherDisplay:10.37,2013-02-19 15:15:00,
2013-02-19 10:20:00,28.2,-0.8,29.38,West,270,9.2,9.2,28,0.00,CLR,,0.00,WeatherDisplay:10.37,2013-02-19 15:20:00,
2013-02-19 10:25:00,28.0,-0.9,29.39,West,270,9.2,9.2,28,0.00,CLR,,0.00,WeatherDisplay:10.37,2013-02-19 15:25:00,
2013-02-19 10:30:00,28.0,-0.9,29.39,West,270,9.2,9.2,28,0.00,CLR,,0.00,WeatherDisplay:10.37,2013-02-19 15:30:00,
2013-02-19 10:35:00,28.0,-0.9,29.38,West,270,12.7,12.7,28,0.00,CLR,,0.00,WeatherDisplay:10.37,2013-02-19 15:35:00,
2013-02-19 10:40:00,28.0,-0.9,29.37,West,270,12.7,12.7,28,0.00,CLR,,0.00,WeatherDisplay:10.37,2013-02-19 15:40:00,
2013-02-19 10:45:00,28.4,-0.6,29.42,West,270,12.7,12.7,28,0.00,CLR,,0.00,WeatherDisplay:10.37,2013-02-19 15:45:00,
2013-02-19 10:50:00,28.4,-0.6,29.43,West,270,12.7,12.7,28,0.00,CLR,,0.00,WeatherDisplay:10.37,2013-02-19 15:50:00,
2013-02-19 10:55:00,28.6,-0.5,29.37,West,270,12.7,12.7,28,0.00,CLR,,0.00,WeatherDisplay:10.37,2013-02-19 15:55:00,
2013-02-19 11:00:00,28.9,-0.1,29.38,West,270,12.7,12.7,28,0.00,CLR,,0.00,WeatherDisplay:10.37,2013-02-19 16:00:00,
2013-02-19 11:05:00,28.9,-0.1,29.39,West,270,10.4,10.4,28,0.00,CLR,,0.00,WeatherDisplay:10.37,2013-02-19 16:05:00,
2013-02-19 11:10:00,28.6,-0.5,29.43,West,270,10.4,10.4,28,0.00,CLR,,0.00,WeatherDisplay:10.37,2013-02-19 16:10:00,
2013-02-19 11:15:00,28.0,-0.9,29.43,West,270,10.4,10.4,28,0.00,CLR,,0.00,WeatherDisplay:10.37,2013-02-19 16:15:00,
2013-02-19 11:20:00,28.0,-0.9,29.44,West,270,10.4,10.4,28,0.00,CLR,,0.00,WeatherDisplay:10.37,2013-02-19 16:20:00,
2013-02-19 11:25:00,27.7,-1.2,29.44,West,270,10.4,10.4,28,0.00,CLR,,0.00,WeatherDisplay:10.37,2013-02-19 16:25:00,
2013-02-19 11:30:00,28.0,-0.9,29.39,West,270,10.4,10.4,28,0.00,CLR,,0.00,WeatherDisplay:10.37,2013-02-19 16:30:00,
2013-02-19 11:35:00,28.2,-0.8,29.45,West,270,10.4,10.4,28,0.00,CLR,,0.00,WeatherDisplay:10.37,2013-02-19 16:35:00,
2013-02-19 11:40:00,28.6,-0.5,29.44,West,270,10.4,10.4,28,0.00,CLR,,0.00,WeatherDisplay:10.37,2013-02-19 16:40:00,
2013-02-19 11:45:00,28.4,-0.6,29.43,West,270,12.7,12.7,28,0.00,CLR,,0.00,WeatherDisplay:10.37,2013-02-19 16:45:00,
2013-02-19 11:50:00,28.8,-0.3,29.43,West,270,12.7,12.7,28,0.00,CLR,,0.00,WeatherDisplay:10.37,2013-02-19 16:50:00,
2013-02-19 11:55:00,28.9,-0.1,29.44,West,270,12.7,12.7,28,0.00,CLR,,0.00,WeatherDisplay:10.37,2013-02-19 16:55:00,
2013-02-19 12:00:00,28.9,-0.1,29.44,West,270,12.7,12.7,28,0.00,CLR,,0.00,WeatherDisplay:10.37,2013-02-19 17:00:00,
2013-02-19 12:05:00,28.6,-0.5,29.44,West,270,12.7,12.7,28,0.00,CLR,,0.00,WeatherDisplay:10.37,2013-02-19 17:05:00,
2013-02-19 12:10:00,28.4,-0.6,29.45,West,270,8.1,8.1,28,0.00,CLR,,0.00,WeatherDisplay:10.37,2013-02-19 17:10:00,
2013-02-19 12:15:00,27.9,-1.1,29.43,West,270,10.9,10.9,28,0.00,CLR,,0.00,WeatherDisplay:10.37,2013-02-19 17:15:00,
2013-02-19 12:20:00,28.2,-0.8,29.44,West,270,10.9,10.9,28,0.00,CLR,,0.00,WeatherDisplay:10.37,2013-02-19 17:20:00,
2013-02-19 12:25:00,27.9,-1.1,29.43,West,270,10.9,10.9,28,0.00,CLR,,0.00,WeatherDisplay:10.37,2013-02-19 17:25:00,
2013-02-19 12:30:00,27.5,-1.4,29.45,West,270,10.9,10.9,28,0.00,CLR,,0.00,WeatherDisplay:10.37,2013-02-19 17:30:00,
2013-02-19 12:35:00,27.5,-1.4,29.45,West,270,10.9,10.9,28,0.00,CLR,,0.00,WeatherDisplay:10.37,2013-02-19 17:35:00,
2013-02-19 12:40:00,27.7,-1.2,29.45,West,270,10.9,10.9,28,0.00,CLR,,0.00,WeatherDisplay:10.37,2013-02-19 17:40:00,
2013-02-19 12:45:00,28.2,-0.8,29.44,West,270,10.9,10.9,28,0.00,CLR,,0.00,WeatherDisplay:10.37,2013-02-19 17:45:00,
2013-02-19 12:50:00,28.0,-0.9,29.43,West,270,10.9,10.9,28,0.00,CLR,,0.00,WeatherDisplay:10.37,2013-02-19 17:50:00,
2013-02-19 12:55:00,28.0,-0.9,29.43,West,270,10.9,10.9,28,0.00,CLR,,0.00,WeatherDisplay:10.37,2013-02-19 17:55:00,
2013-02-19 13:00:00,28.2,-0.8,29.44,West,270,10.9,10.9,28,0.00,CLR,,0.00,WeatherDisplay:10.37,2013-02-19 18:00:00,
2013-02-19 13:05:00,28.6,-0.5,29.44,West,270,10.4,10.4,28,0.00,CLR,,0.00,WeatherDisplay:10.37,2013-02-19 18:05:00,
2013-02-19 13:10:00,28.6,-0.5,29.44,West,270,8.4,8.4,28,0.00,CLR,,0.00,WeatherDisplay:10.37,2013-02-19 18:10:00,
2013-02-19 13:15:00,28.4,-0.6,29.44,West,270,8.4,8.4,28,0.00,CLR,,0.00,WeatherDisplay:10.37,2013-02-19 18:15:00,
2013-02-19 13:20:00,28.0,-0.9,29.42,West,270,13.8,13.8,28,0.00,CLR,,0.00,WeatherDisplay:10.37,2013-02-19 18:20:00,
2013-02-19 13:25:00,27.9,-1.1,29.42,West,270,13.8,13.8,28,0.00,CLR,,0.00,WeatherDisplay:10.37,2013-02-19 18:25:00,
2013-02-19 13:30:00,28.0,-0.9,29.43,West,270,13.8,13.8,28,0.00,CLR,,0.00,WeatherDisplay:10.37,2013-02-19 18:30:00,
2013-02-19 13:35:00,27.9,-1.1,29.43,West,270,13.8,13.8,28,0.00,CLR,,0.00,WeatherDisplay:10.37,2013-02-19 18:35:00,
2013-02-19 13:40:00,27.3,-1.6,29.44,West,270,13.8,13.8,28,0.00,CLR,,0.00,WeatherDisplay:10.37,2013-02-19 18:40:00,
2013-02-19 13:45:00,27.1,-1.7,29.44,West,270,13.8,13.8,28,0.00,CLR,,0.00,WeatherDisplay:10.37,2013-02-19 18:45:00,
2013-02-19 13:50:00,26.8,-2.0,29.43,West,270,13.8,13.8,28,0.00,CLR,,0.00,WeatherDisplay:10.37,2013-02-19 18:50:00,
2013-02-19 13:55:00,26.6,-2.2,29.43,West,270,13.8,13.8,28,0.00,CLR,,0.00,WeatherDisplay:10.37,2013-02-19 18:55:00,
2013-02-19 14:00:00,26.4,-2.3,29.43,West,270,13.8,13.8,28,0.00,CLR,,0.00,WeatherDisplay:10.37,2013-02-19 19:00:00,
2013-02-19 14:05:00,26.6,-2.2,29.45,West,270,13.8,13.8,28,0.00,CLR,,0.00,WeatherDisplay:10.37,2013-02-19 19:05:00,
2013-02-19 14:10:00,26.8,-2.0,29.45,West,270,12.9,12.9,28,0.00,CLR,,0.00,WeatherDisplay:10.37,2013-02-19 19:10:00,
2013-02-19 14:15:00,26.6,-2.2,29.45,West,270,12.9,12.9,28,0.00,CLR,,0.00,WeatherDisplay:10.37,2013-02-19 19:15:00,
2013-02-19 14:20:00,26.6,-2.2,29.44,West,270,12.9,12.9,28,0.00,CLR,,0.00,WeatherDisplay:10.37,2013-02-19 19:20:00,
2013-02-19 14:25:00,26.2,-2.5,29.43,West,270,12.9,12.9,28,0.00,CLR,,0.00,WeatherDisplay:10.37,2013-02-19 19:25:00,
2013-02-19 14:30:00,26.2,-2.5,29.44,West,270,12.9,12.9,28,0.00,CLR,,0.00,WeatherDisplay:10.37,2013-02-19 19:30:00,
2013-02-19 14:35:00,26.2,-2.5,29.45,West,270,12.9,12.9,28,0.00,CLR,,0.00,WeatherDisplay:10.37,2013-02-19 19:35:00,
2013-02-19 14:40:00,26.4,-2.3,29.46,West,270,12.9,12.9,28,0.00,CLR,,0.00,WeatherDisplay:10.37,2013-02-19 19:40:00,
2013-02-19 14:45:00,26.2,-2.5,29.46,West,270,12.9,12.9,28,0.00,CLR,,0.00,WeatherDisplay:10.37,2013-02-19 19:45:00,
2013-02-19 14:50:00,24.6,-3.9,29.45,West,270,12.9,12.9,28,0.00,CLR,,0.00,WeatherDisplay:10.37,2013-02-19 19:50:00,
2013-02-19 14:55:00,24.6,-3.9,29.45,West,270,12.9,12.9,28,0.00,CLR,,0.00,WeatherDisplay:10.37,2013-02-19 19:55:00,
2013-02-19 15:00:00,24.8,-3.8,29.46,West,270,12.9,12.9,28,0.00,CLR,,0.00,WeatherDisplay:10.37,2013-02-19 20:00:00,
2013-02-19 15:05:00,24.8,-3.8,29.46,West,270,6.9,6.9,28,0.00,CLR,,0.00,WeatherDisplay:10.37,2013-02-19 20:05:00,
2013-02-19 15:10:00,24.8,-3.8,29.47,West,270,10.4,10.4,28,0.00,CLR,,0.00,WeatherDisplay:10.37,2013-02-19 20:10:00,
2013-02-19 15:15:00,25.0,-3.6,29.47,West,270,11.6,11.6,28,0.00,CLR,,0.00,WeatherDisplay:10.37,2013-02-19 20:15:00,
2013-02-19 15:20:00,24.8,-3.8,29.46,West,270,11.6,11.6,28,0.00,CLR,,0.00,WeatherDisplay:10.37,2013-02-19 20:20:00,
2013-02-19 15:25:00,24.8,-3.8,29.46,West,270,11.6,11.6,28,0.00,CLR,,0.00,WeatherDisplay:10.37,2013-02-19 20:25:00,
2013-02-19 15:30:00,25.0,-3.6,29.47,West,270,11.6,11.6,28,0.00,CLR,,0.00,WeatherDisplay:10.37,2013-02-19 20:30:00,
2013-02-19 15:35:00,24.8,-3.8,29.47,West,270,11.6,11.6,28,0.00,CLR,,0.00,WeatherDisplay:10.37,2013-02-19 20:35:00,
2013-02-19 15:40:00,24.8,-3.8,29.48,West,270,11.6,11.6,28,0.00,CLR,,0.00,WeatherDisplay:10.37,2013-02-19 20:40:00,
2013-02-19 15:45:00,24.8,-3.8,29.48,West,270,11.6,11.6,28,0.00,CLR,,0.00,WeatherDisplay:10.37,2013-02-19 20:45:00,
2013-02-19 15:50:00,24.8,-3.8,29.49,West,270,11.6,11.6,28,0.00,CLR,,0.00,WeatherDisplay:10.37,2013-02-19 20:50:00,
2013-02-19 15:55:00,24.6,-3.9,29.48,West,270,11.6,11.6,28,0.00,CLR,,0.00,WeatherDisplay:10.37,2013-02-19 20:55:00,
2013-02-19 16:00:00,26.4,-2.3,29.48,West,270,11.6,11.6,28,0.00,CLR,,0.00,WeatherDisplay:10.37,2013-02-19 21:00:00,
2013-02-19 16:05:00,26.4,-2.3,29.48,West,270,13.8,13.8,28,0.00,CLR,,0.00,WeatherDisplay:10.37,2013-02-19 21:05:00,
2013-02-19 16:10:00,26.4,-2.3,29.49,West,270,13.8,13.8,28,0.00,CLR,,0.00,WeatherDisplay:10.37,2013-02-19 21:10:00,
2013-02-19 16:15:00,24.6,-3.9,29.50,West,270,13.8,13.8,28,0.00,CLR,,0.00,WeatherDisplay:10.37,2013-02-19 21:15:00,
2013-02-19 16:20:00,25.0,-3.6,29.51,West,270,13.8,13.8,28,0.00,CLR,,0.00,WeatherDisplay:10.37,2013-02-19 21:20:00,
2013-02-19 16:25:00,25.3,-3.3,29.51,West,270,13.8,13.8,28,0.00,CLR,,0.00,WeatherDisplay:10.37,2013-02-19 21:25:00,
2013-02-19 16:30:00,25.2,-3.4,29.50,West,270,13.8,13.8,28,0.00,CLR,,0.00,WeatherDisplay:10.37,2013-02-19 21:30:00,
2013-02-19 16:35:00,25.0,-3.6,29.50,West,270,13.8,13.8,28,0.00,CLR,,0.00,WeatherDisplay:10.37,2013-02-19 21:35:00,
2013-02-19 16:40:00,25.2,-3.4,29.51,West,270,13.8,13.8,28,0.00,CLR,,0.00,WeatherDisplay:10.37,2013-02-19 21:40:00,
2013-02-19 16:45:00,25.2,-3.4,29.52,West,270,13.8,13.8,28,0.00,CLR,,0.00,WeatherDisplay:10.37,2013-02-19 21:45:00,
2013-02-19 16:50:00,25.5,-3.1,29.52,West,270,13.8,13.8,28,0.00,CLR,,0.00,WeatherDisplay:10.37,2013-02-19 21:50:00,
2013-02-19 16:55:00,25.7,-3.0,29.52,West,270,13.8,13.8,28,0.00,CLR,,0.00,WeatherDisplay:10.37,2013-02-19 21:55:00,
2013-02-19 17:00:00,25.9,-2.8,29.52,West,270,13.8,13.8,28,0.00,CLR,,0.00,WeatherDisplay:10.37,2013-02-19 22:00:00,
2013-02-19 17:05:00,22.6,-5.6,29.52,West,270,13.8,13.8,28,0.00,CLR,,0.00,WeatherDisplay:10.37,2013-02-19 22:05:00,
2013-02-19 17:10:00,22.6,-5.6,29.53,West,270,9.2,9.2,28,0.00,CLR,,0.00,WeatherDisplay:10.37,2013-02-19 22:10:00,
2013-02-19 17:15:00,22.6,-5.6,29.54,West,270,9.2,9.2,28,0.00,CLR,,0.00,WeatherDisplay:10.37,2013-02-19 22:15:00,
2013-02-19 17:20:00,22.8,-5.5,29.54,West,270,9.2,9.2,28,0.00,CLR,,0.00,WeatherDisplay:10.37,2013-02-19 22:20:00,
2013-02-19 17:25:00,23.2,-5.2,29.53,West,270,9.2,9.2,28,0.00,CLR,,0.00,WeatherDisplay:10.37,2013-02-19 22:25:00,
2013-02-19 17:30:00,23.5,-4.9,29.59,West,270,9.2,9.2,28,0.00,CLR,,0.00,WeatherDisplay:10.37,2013-02-19 22:30:00,
2013-02-19 17:35:00,23.9,-4.5,29.59,West,270,11.4,11.4,28,0.00,CLR,,0.00,WeatherDisplay:10.37,2013-02-19 22:35:00,
2013-02-19 17:40:00,23.9,-4.5,29.54,West,270,11.5,11.5,28,0.00,CLR,,0.00,WeatherDisplay:10.37,2013-02-19 22:40:00,
2013-02-19 17:45:00,23.9,-4.5,29.54,West,270,11.5,11.5,28,0.00,CLR,,0.00,WeatherDisplay:10.37,2013-02-19 22:45:00,
2013-02-19 17:50:00,20.8,-7.2,29.60,West,270,11.5,11.5,28,0.00,CLR,,0.00,WeatherDisplay:10.37,2013-02-19 22:50:00,
2013-02-19 17:55:00,21.0,-7.1,29.60,West,270,11.5,11.5,28,0.00,CLR,,0.00,WeatherDisplay:10.37,2013-02-19 22:55:00,
2013-02-19 18:00:00,21.2,-6.9,29.60,West,270,11.5,11.5,28,0.00,CLR,,0.00,WeatherDisplay:10.37,2013-02-19 23:00:00,
2013-02-19 18:05:00,21.2,-6.9,29.62,West,270,11.5,11.5,28,0.00,CLR,,0.00,WeatherDisplay:10.37,2013-02-19 23:05:00,
2013-02-19 18:10:00,21.2,-6.9,29.56,West,270,9.2,9.2,28,0.00,CLR,,0.00,WeatherDisplay:10.37,2013-02-19 23:10:00,
2013-02-19 18:15:00,21.6,-6.6,29.57,West,270,10.4,10.4,28,0.00,CLR,,0.00,WeatherDisplay:10.37,2013-02-19 23:15:00,
2013-02-19 18:20:00,21.6,-6.6,29.63,West,270,10.4,10.4,28,0.00,CLR,,0.00,WeatherDisplay:10.37,2013-02-19 23:20:00,
2013-02-19 18:25:00,21.6,-6.6,29.62,West,270,11.5,11.5,28,0.00,CLR,,0.00,WeatherDisplay:10.37,2013-02-19 23:25:00,
2013-02-19 18:30:00,21.9,-6.3,29.63,West,270,11.5,11.5,28,0.00,CLR,,0.00,WeatherDisplay:10.37,2013-02-19 23:30:00,
2013-02-19 18:35:00,21.9,-6.3,29.64,West,270,11.5,11.5,28,0.00,CLR,,0.00,WeatherDisplay:10.37,2013-02-19 23:35:00,
2013-02-19 18:40:00,22.1,-6.1,29.60,West,270,11.5,11.5,28,0.00,CLR,,0.00,WeatherDisplay:10.37,2013-02-19 23:40:00,
2013-02-19 18:45:00,22.1,-6.1,29.59,West,270,11.5,11.5,28,0.00,CLR,,0.00,WeatherDisplay:10.37,2013-02-19 23:45:00,
2013-02-19 18:50:00,22.3,-6.0,29.66,West,270,11.5,11.5,28,0.00,CLR,,0.00,WeatherDisplay:10.37,2013-02-19 23:50:00,
2013-02-19 18:55:00,22.5,-5.8,29.66,West,270,11.5,11.5,28,0.00,CLR,,0.00,WeatherDisplay:10.37,2013-02-19 23:55:00,
2013-02-19 19:00:00,22.3,-6.0,29.61,West,270,11.5,11.5,28,0.00,CLR,,0.00,WeatherDisplay:10.37,2013-02-20 00:00:00,
2013-02-19 19:05:00,22.3,-6.0,29.62,West,270,11.5,11.5,28,0.00,CLR,,0.00,WeatherDisplay:10.37,2013-02-20 00:05:00,
2013-02-19 19:10:00,19.0,-8.8,29.63,West,270,9.2,9.2,28,0.00,CLR,,0.00,WeatherDisplay:10.37,2013-02-20 00:10:00,
2013-02-19 19:15:00,19.2,-8.6,29.63,West,270,9.2,9.2,28,0.00,CLR,,0.00,WeatherDisplay:10.37,2013-02-20 00:15:00,
2013-02-19 19:20:00,19.4,-8.5,29.67,West,270,9.7,9.7,28,0.00,CLR,,0.00,WeatherDisplay:10.37,2013-02-20 00:20:00,
2013-02-19 19:25:00,19.4,-8.5,29.68,West,270,11.5,11.5,28,0.00,CLR,,0.00,WeatherDisplay:10.37,2013-02-20 00:25:00,
2013-02-19 19:30:00,19.4,-8.5,29.68,West,270,11.5,11.5,28,0.00,CLR,,0.00,WeatherDisplay:10.37,2013-02-20 00:30:00,
2013-02-19 19:35:00,19.4,-8.5,29.63,West,270,11.5,11.5,28,0.00,CLR,,0.00,WeatherDisplay:10.37,2013-02-20 00:35:00,
2013-02-19 19:40:00,19.4,-8.5,29.65,West,270,11.5,11.5,28,0.00,CLR,,0.00,WeatherDisplay:10.37,2013-02-20 00:40:00,
2013-02-19 19:45:00,19.6,-8.3,29.64,West,270,11.5,11.5,28,0.00,CLR,,0.00,WeatherDisplay:10.37,2013-02-20 00:45:00,
2013-02-19 19:50:00,19.6,-8.3,29.70,West,270,11.5,11.5,28,0.00,CLR,,0.00,WeatherDisplay:10.37,2013-02-20 00:50:00,
2013-02-19 19:55:00,19.8,-8.2,29.68,West,270,11.5,11.5,28,0.00,CLR,,0.00,WeatherDisplay:10.37,2013-02-20 00:55:00,
2013-02-19 20:00:00,19.6,-8.3,29.69,West,270,11.5,11.5,28,0.00,CLR,,0.00,WeatherDisplay:10.37,2013-02-20 01:00:00,
2013-02-19 20:05:00,19.8,-8.2,29.65,West,270,3.5,3.5,28,0.00,CLR,,0.00,WeatherDisplay:10.37,2013-02-20 01:05:00,
2013-02-19 20:10:00,19.6,-8.3,29.65,West,270,5.8,5.8,28,0.00,CLR,,0.00,WeatherDisplay:10.37,2013-02-20 01:10:00,
2013-02-19 20:15:00,19.8,-8.2,29.66,West,270,9.2,9.2,28,0.00,CLR,,0.00,WeatherDisplay:10.37,2013-02-20 01:15:00,
2013-02-19 20:20:00,19.9,-8.0,29.65,West,270,9.2,9.2,28,0.00,CLR,,0.00,WeatherDisplay:10.37,2013-02-20 01:20:00,
2013-02-19 20:25:00,20.3,-7.7,29.70,West,270,12.0,12.0,28,0.00,CLR,,0.00,WeatherDisplay:10.37,2013-02-20 01:25:00,
2013-02-19 20:30:00,20.3,-7.7,29.70,West,270,12.0,12.0,28,0.00,CLR,,0.00,WeatherDisplay:10.37,2013-02-20 01:30:00,
2013-02-19 20:35:00,20.5,-7.5,29.64,West,270,12.0,12.0,28,0.00,CLR,,0.00,WeatherDisplay:10.37,2013-02-20 01:35:00,
2013-02-19 20:40:00,20.5,-7.5,29.65,West,270,12.0,12.0,28,0.00,CLR,,0.00,WeatherDisplay:10.37,2013-02-20 01:40:00,
2013-02-19 20:45:00,20.5,-7.5,29.67,West,270,12.0,12.0,28,0.00,CLR,,0.00,WeatherDisplay:10.37,2013-02-20 01:45:00,
2013-02-19 20:50:00,20.5,-7.5,29.65,West,270,12.0,12.0,28,0.00,CLR,,0.00,WeatherDisplay:10.37,2013-02-20 01:50:00,
2013-02-19 20:55:00,20.5,-7.5,29.71,West,270,12.0,12.0,28,0.00,CLR,,0.00,WeatherDisplay:10.37,2013-02-20 01:55:00,
2013-02-19 21:00:00,20.5,-7.5,29.72,West,270,12.0,12.0,28,0.00,CLR,,0.00,WeatherDisplay:10.37,2013-02-20 02:00:00,
2013-02-19 21:05:00,20.5,-7.5,29.66,West,270,6.9,6.9,28,0.00,CLR,,0.00,WeatherDisplay:10.37,2013-02-20 02:05:00,
2013-02-19 21:10:00,20.7,-7.4,29.67,West,270,9.2,9.2,28,0.00,CLR,,0.00,WeatherDisplay:10.37,2013-02-20 02:10:00,
2013-02-19 21:15:00,20.7,-7.4,29.67,West,270,9.2,9.2,28,0.00,CLR,,0.00,WeatherDisplay:10.37,2013-02-20 02:15:00,
2013-02-19 21:20:00,20.7,-7.4,29.67,West,270,9.2,9.2,28,0.00,CLR,,0.00,WeatherDisplay:10.37,2013-02-20 02:20:00,
2013-02-19 21:25:00,17.2,-10.4,29.72,West,270,9.2,9.2,28,0.00,CLR,,0.00,WeatherDisplay:10.37,2013-02-20 02:25:00,
2013-02-19 21:30:00,17.2,-10.4,29.67,West,270,9.2,9.2,28,0.00,CLR,,0.00,WeatherDisplay:10.37,2013-02-20 02:30:00,
2013-02-19 21:35:00,17.2,-10.4,29.68,West,270,9.2,9.2,28,0.00,CLR,,0.00,WeatherDisplay:10.37,2013-02-20 02:35:00,
2013-02-19 21:40:00,17.2,-10.4,29.69,West,270,10.4,10.4,28,0.00,CLR,,0.00,WeatherDisplay:10.37,2013-02-20 02:40:00,
2013-02-19 21:45:00,17.2,-10.4,29.69,West,270,10.4,10.4,28,0.00,CLR,,0.00,WeatherDisplay:10.37,2013-02-20 02:45:00,
2013-02-19 21:50:00,20.7,-7.4,29.69,West,270,10.4,10.4,28,0.00,CLR,,0.00,WeatherDisplay:10.37,2013-02-20 02:50:00,
2013-02-19 21:55:00,20.7,-7.4,29.67,West,270,10.4,10.4,28,0.00,CLR,,0.00,WeatherDisplay:10.37,2013-02-20 02:55:00,
2013-02-19 22:00:00,20.7,-7.4,29.68,West,270,10.4,10.4,28,0.00,CLR,,0.00,WeatherDisplay:10.37,2013-02-20 03:00:00,
2013-02-19 22:05:00,20.7,-7.4,29.69,West,270,6.9,6.9,28,0.00,CLR,,0.00,WeatherDisplay:10.37,2013-02-20 03:05:00,
2013-02-19 22:10:00,17.2,-10.4,29.70,West,270,6.9,6.9,28,0.00,CLR,,0.00,WeatherDisplay:10.37,2013-02-20 03:10:00,
2013-02-19 22:15:00,17.2,-10.4,29.69,West,270,8.1,8.1,28,0.00,CLR,,0.00,WeatherDisplay:10.37,2013-02-20 03:15:00,
2013-02-19 22:20:00,20.7,-7.4,29.69,West,270,8.1,8.1,28,0.00,CLR,,0.00,WeatherDisplay:10.37,2013-02-20 03:20:00,
2013-02-19 22:25:00,17.2,-10.4,29.74,West,270,8.1,8.1,28,0.00,CLR,,0.00,WeatherDisplay:10.37,2013-02-20 03:25:00,
2013-02-19 22:30:00,17.2,-10.4,29.68,West,270,8.1,8.1,28,0.00,CLR,,0.00,WeatherDisplay:10.37,2013-02-20 03:30:00,
2013-02-19 22:35:00,17.2,-10.4,29.69,West,270,8.1,8.1,28,0.00,CLR,,0.00,WeatherDisplay:10.37,2013-02-20 03:35:00,
2013-02-19 22:40:00,17.2,-10.4,29.70,West,270,8.1,8.1,28,0.00,CLR,,0.00,WeatherDisplay:10.37,2013-02-20 03:40:00,
2013-02-19 22:45:00,17.2,-10.4,29.71,West,270,8.1,8.1,28,0.00,CLR,,0.00,WeatherDisplay:10.37,2013-02-20 03:45:00,
2013-02-19 22:50:00,17.4,-10.2,29.70,West,270,8.1,8.1,28,0.00,CLR,,0.00,WeatherDisplay:10.37,2013-02-20 03:50:00,
2013-02-19 22:55:00,17.6,-10.0,29.69,West,270,8.1,8.1,28,0.00,CLR,,0.00,WeatherDisplay:10.37,2013-02-20 03:55:00,
2013-02-19 23:00:00,17.6,-10.0,29.69,West,270,9.2,9.2,28,0.00,CLR,,0.00,WeatherDisplay:10.37,2013-02-20 04:00:00,
2013-02-19 23:05:00,17.8,-9.9,29.70,West,270,9.2,9.2,28,0.00,CLR,,0.00,WeatherDisplay:10.37,2013-02-20 04:05:00,
2013-02-19 23:10:00,17.8,-9.9,29.71,West,270,9.2,9.2,28,0.00,CLR,,0.00,WeatherDisplay:10.37,2013-02-20 04:10:00,
2013-02-19 23:15:00,17.6,-10.0,29.71,West,270,9.2,9.2,28,0.00,CLR,,0.00,WeatherDisplay:10.37,2013-02-20 04:15:00,
2013-02-19 23:20:00,17.6,-10.0,29.70,West,270,9.2,9.2,28,0.00,CLR,,0.00,WeatherDisplay:10.37,2013-02-20 04:20:00,
2013-02-19 23:25:00,17.8,-9.9,29.70,West,270,9.2,9.2,28,0.00,CLR,,0.00,WeatherDisplay:10.37,2013-02-20 04:25:00,
2013-02-19 23:30:00,17.6,-10.0,29.71,West,270,9.2,9.2,28,0.00,CLR,,0.00,WeatherDisplay:10.37,2013-02-20 04:30:00,
2013-02-19 23:35:00,17.6,-10.0,29.71,West,270,9.2,9.2,28,0.00,CLR,,0.00,WeatherDisplay:10.37,2013-02-20 04:35:00,
2013-02-19 23:40:00,17.6,-10.0,29.72,West,270,9.2,9.2,28,0.00,CLR,,0.00,WeatherDisplay:10.37,2013-02-20 04:40:00,
2013-02-19 23:45:00,17.8,-9.9,29.72,West,270,9.2,9.2,28,0.00,CLR,,0.00,WeatherDisplay:10.37,2013-02-20 04:45:00,
2013-02-19 23:50:00,18.0,-9.7,29.71,West,270,9.2,9.2,28,0.00,CLR,,0.00,WeatherDisplay:10.37,2013-02-20 04:50:00,
2013-02-19 23:55:00,18.1,-9.6,29.71,West,270,9.2,9.2,28,0.00,CLR,,0.00,WeatherDisplay:10.37,2013-02-20 04:55:00,